createdAt,value
2023-05-10T00:00:40.620Z,562.00
2023-05-10T00:01:40.626Z,562.00
2023-05-10T00:02:40.658Z,562.00
2023-05-10T00:03:40.624Z,565.00
2023-05-10T00:04:40.510Z,562.00
2023-05-10T00:05:40.470Z,557.00
2023-05-10T00:06:40.473Z,566.00
2023-05-10T00:07:40.403Z,558.00
2023-05-10T00:08:40.395Z,560.00
2023-05-10T00:09:40.362Z,558.00
2023-05-10T00:10:40.337Z,559.00
2023-05-10T00:11:40.298Z,558.00
2023-05-10T00:12:40.274Z,560.00
2023-05-10T00:13:40.273Z,558.00
2023-05-10T00:14:40.210Z,561.00
2023-05-10T00:15:40.180Z,558.00
2023-05-10T00:16:40.171Z,558.00
2023-05-10T00:17:40.205Z,560.00
2023-05-10T00:18:40.175Z,559.00
2023-05-10T00:19:40.080Z,560.00
2023-05-10T00:20:40.062Z,560.00
2023-05-10T00:21:40.023Z,556.00
2023-05-10T00:22:39.997Z,559.00
2023-05-10T00:23:39.973Z,561.00
2023-05-10T00:24:39.942Z,559.00
2023-05-10T00:25:39.904Z,555.00
2023-05-10T00:26:40.487Z,556.00
2023-05-10T00:27:39.849Z,555.00
2023-05-10T00:28:39.832Z,556.00
2023-05-10T00:29:39.793Z,553.00
2023-05-10T00:30:39.786Z,556.00
2023-05-10T00:31:39.804Z,558.00
2023-05-10T00:32:39.767Z,556.00
2023-05-10T00:33:39.685Z,557.00
2023-05-10T00:34:39.653Z,556.00
2023-05-10T00:35:39.637Z,561.00
2023-05-10T00:36:39.622Z,560.00
2023-05-10T00:37:39.593Z,559.00
2023-05-10T00:38:39.575Z,558.00
2023-05-10T00:39:39.573Z,559.00
2023-05-10T00:40:39.529Z,556.00
2023-05-10T00:41:39.505Z,556.00
2023-05-10T00:42:39.493Z,558.00
2023-05-10T00:43:39.494Z,558.00
2023-05-10T00:44:39.434Z,551.00
2023-05-10T00:45:39.420Z,549.00
2023-05-10T00:46:39.379Z,550.00
2023-05-10T00:47:39.407Z,554.00
2023-05-10T00:48:39.322Z,550.00
2023-05-10T00:49:39.306Z,550.00
2023-05-10T00:50:39.309Z,551.00
2023-05-10T00:51:39.276Z,550.00
2023-05-10T00:52:39.237Z,550.00
2023-05-10T00:53:39.202Z,545.00
2023-05-10T00:54:39.198Z,553.00
2023-05-10T00:55:39.147Z,555.00
2023-05-10T00:56:39.135Z,552.00
2023-05-10T00:57:39.106Z,551.00
2023-05-10T00:58:39.073Z,555.00
2023-05-10T00:59:39.035Z,546.00
2023-05-10T01:00:39.045Z,547.00
2023-05-10T01:01:39.008Z,550.00
2023-05-10T01:02:39.057Z,555.00
2023-05-10T01:03:39.018Z,550.00
2023-05-10T01:04:38.954Z,556.00
2023-05-10T01:05:38.885Z,550.00
2023-05-10T01:06:38.846Z,548.00
2023-05-10T01:07:38.876Z,549.00
2023-05-10T01:08:38.819Z,547.00
2023-05-10T01:09:38.842Z,548.00
2023-05-10T01:10:38.743Z,554.00
2023-05-10T01:11:38.725Z,551.00
2023-05-10T01:12:38.789Z,551.00
2023-05-10T01:13:39.014Z,552.00
2023-05-10T01:14:38.648Z,551.00
2023-05-10T01:15:38.687Z,549.00
2023-05-10T01:16:38.585Z,541.00
2023-05-10T01:17:38.611Z,546.00
2023-05-10T01:18:38.525Z,545.00
2023-05-10T01:19:38.500Z,537.00
2023-05-10T01:20:38.489Z,536.00
2023-05-10T01:21:38.459Z,540.00
2023-05-10T01:22:38.421Z,546.00
2023-05-10T01:23:38.518Z,540.00
2023-05-10T01:24:38.374Z,543.00
2023-05-10T01:25:38.359Z,543.00
2023-05-10T01:26:38.365Z,538.00
2023-05-10T01:27:38.327Z,542.00
2023-05-10T01:28:38.309Z,542.00
2023-05-10T01:29:38.272Z,536.00
2023-05-10T01:30:38.253Z,536.00
2023-05-10T01:31:38.221Z,539.00
2023-05-10T01:32:38.225Z,542.00
2023-05-10T01:33:38.184Z,544.00
2023-05-10T01:34:38.143Z,542.00
2023-05-10T01:35:38.137Z,544.00
2023-05-10T01:36:38.106Z,543.00
2023-05-10T01:37:38.174Z,544.00
2023-05-10T01:38:38.062Z,542.00
2023-05-10T01:39:38.044Z,542.00
2023-05-10T01:40:38.009Z,540.00
2023-05-10T01:41:38.007Z,543.00
2023-05-10T01:42:37.972Z,539.00
2023-05-10T01:43:37.948Z,535.00
2023-05-10T01:44:37.918Z,537.00
2023-05-10T01:45:37.905Z,542.00
2023-05-10T01:46:37.969Z,540.00
2023-05-10T01:47:37.851Z,541.00
2023-05-10T01:48:37.842Z,543.00
2023-05-10T01:49:37.821Z,537.00
2023-05-10T01:50:37.791Z,536.00
2023-05-10T01:51:37.747Z,541.00
2023-05-10T01:52:37.732Z,543.00
2023-05-10T01:53:37.696Z,538.00
2023-05-10T01:54:37.680Z,535.00
2023-05-10T01:55:37.652Z,539.00
2023-05-10T01:56:37.617Z,533.00
2023-05-10T01:57:37.596Z,533.00
2023-05-10T01:58:37.560Z,531.00
2023-05-10T01:59:37.565Z,533.00
2023-05-10T02:00:37.579Z,534.00
2023-05-10T02:01:37.488Z,539.00
2023-05-10T02:02:37.457Z,537.00
2023-05-10T02:03:37.462Z,537.00
2023-05-10T02:04:37.436Z,534.00
2023-05-10T02:05:37.394Z,535.00
2023-05-10T02:06:37.394Z,534.00
2023-05-10T02:07:37.353Z,534.00
2023-05-10T02:08:37.329Z,538.00
2023-05-10T02:09:37.295Z,537.00
2023-05-10T02:10:37.274Z,530.00
2023-05-10T02:11:37.252Z,533.00
2023-05-10T02:12:37.239Z,537.00
2023-05-10T02:13:37.243Z,534.00
2023-05-10T02:14:37.248Z,531.00
2023-05-10T02:15:37.172Z,529.00
2023-05-10T02:16:37.190Z,534.00
2023-05-10T02:17:37.185Z,535.00
2023-05-10T02:18:37.104Z,536.00
2023-05-10T02:19:37.074Z,537.00
2023-05-10T02:20:37.052Z,539.00
2023-05-10T02:21:37.014Z,531.00
2023-05-10T02:22:36.996Z,535.00
2023-05-10T02:23:36.976Z,528.00
2023-05-10T02:24:36.950Z,534.00
2023-05-10T02:25:36.940Z,532.00
2023-05-10T02:26:36.932Z,534.00
2023-05-10T02:27:36.922Z,526.00
2023-05-10T02:28:36.919Z,533.00
2023-05-10T02:29:36.903Z,529.00
2023-05-10T02:30:36.883Z,527.00
2023-05-10T02:31:36.905Z,532.00
2023-05-10T02:32:36.884Z,526.00
2023-05-10T02:33:36.860Z,525.00
2023-05-10T02:34:36.850Z,528.00
2023-05-10T02:35:36.836Z,526.00
2023-05-10T02:36:36.847Z,535.00
2023-05-10T02:37:36.828Z,523.00
2023-05-10T02:38:36.811Z,529.00
2023-05-10T02:39:36.802Z,530.00
2023-05-10T02:40:36.803Z,529.00
2023-05-10T02:41:36.800Z,527.00
2023-05-10T02:42:36.797Z,526.00
2023-05-10T02:43:36.786Z,527.00
2023-05-10T02:44:36.821Z,524.00
2023-05-10T02:45:36.810Z,529.00
2023-05-10T02:46:36.855Z,524.00
2023-05-10T02:47:36.827Z,533.00
2023-05-10T02:48:36.803Z,524.00
2023-05-10T02:49:36.788Z,527.00
2023-05-10T02:50:36.779Z,526.00
2023-05-10T02:51:36.776Z,528.00
2023-05-10T02:52:36.779Z,523.00
2023-05-10T02:53:36.786Z,520.00
2023-05-10T02:54:36.777Z,522.00
2023-05-10T02:55:36.765Z,525.00
2023-05-10T02:56:36.765Z,529.00
2023-05-10T02:57:36.753Z,521.00
2023-05-10T02:58:36.743Z,519.00
2023-05-10T02:59:36.727Z,523.00
2023-05-10T03:00:36.724Z,526.00
2023-05-10T03:01:36.765Z,530.00
2023-05-10T03:02:36.765Z,521.00
2023-05-10T03:03:36.730Z,526.00
2023-05-10T03:04:36.744Z,526.00
2023-05-10T03:05:36.710Z,521.00
2023-05-10T03:06:36.715Z,527.00
2023-05-10T03:07:36.713Z,528.00
2023-05-10T03:08:36.713Z,528.00
2023-05-10T03:09:36.728Z,525.00
2023-05-10T03:10:36.700Z,526.00
2023-05-10T03:11:36.742Z,521.00
2023-05-10T03:12:36.706Z,523.00
2023-05-10T03:13:36.718Z,527.00
2023-05-10T03:14:36.716Z,524.00
2023-05-10T03:15:36.715Z,520.00
2023-05-10T03:16:36.705Z,523.00
2023-05-10T03:17:36.747Z,525.00
2023-05-10T03:18:36.711Z,525.00
2023-05-10T03:19:36.713Z,524.00
2023-05-10T03:20:36.710Z,525.00
2023-05-10T03:21:36.713Z,519.00
2023-05-10T03:22:36.710Z,518.00
2023-05-10T03:23:36.714Z,526.00
2023-05-10T03:24:36.701Z,523.00
2023-05-10T03:25:36.696Z,520.00
2023-05-10T03:26:36.702Z,518.00
2023-05-10T03:27:36.796Z,523.00
2023-05-10T03:28:36.757Z,516.00
2023-05-10T03:29:36.691Z,521.00
2023-05-10T03:30:36.700Z,523.00
2023-05-10T03:31:36.736Z,521.00
2023-05-10T03:32:36.715Z,523.00
2023-05-10T03:33:36.714Z,517.00
2023-05-10T03:34:36.722Z,519.00
2023-05-10T03:35:36.706Z,518.00
2023-05-10T03:36:36.709Z,518.00
2023-05-10T03:37:36.712Z,515.00
2023-05-10T03:38:36.731Z,520.00
2023-05-10T03:39:36.719Z,518.00
2023-05-10T03:40:36.740Z,516.00
2023-05-10T03:41:36.717Z,520.00
2023-05-10T03:42:36.740Z,523.00
2023-05-10T03:43:36.776Z,518.00
2023-05-10T03:44:36.734Z,516.00
2023-05-10T03:45:36.746Z,512.00
2023-05-10T03:46:36.762Z,515.00
2023-05-10T03:47:36.797Z,514.00
2023-05-10T03:48:36.759Z,512.00
2023-05-10T03:49:36.765Z,514.00
2023-05-10T03:50:36.778Z,512.00
2023-05-10T03:51:36.762Z,514.00
2023-05-10T03:52:36.772Z,513.00
2023-05-10T03:53:36.769Z,514.00
2023-05-10T03:54:36.788Z,515.00
2023-05-10T03:55:36.774Z,515.00
2023-05-10T03:56:36.789Z,514.00
2023-05-10T03:57:36.786Z,515.00
2023-05-10T03:58:36.796Z,512.00
2023-05-10T03:59:36.812Z,513.00
2023-05-10T04:00:36.817Z,512.00
2023-05-10T04:01:36.849Z,515.00
2023-05-10T04:02:36.937Z,511.00
2023-05-10T04:03:36.894Z,504.00
2023-05-10T04:04:36.831Z,512.00
2023-05-10T04:05:36.833Z,509.00
2023-05-10T04:06:36.904Z,509.00
2023-05-10T04:07:36.853Z,507.00
2023-05-10T04:08:36.838Z,510.00
2023-05-10T04:09:36.851Z,509.00
2023-05-10T04:10:36.853Z,505.00
2023-05-10T04:11:36.866Z,511.00
2023-05-10T04:12:36.868Z,506.00
2023-05-10T04:13:36.864Z,510.00
2023-05-10T04:14:36.869Z,508.00
2023-05-10T04:15:36.892Z,503.00
2023-05-10T04:16:36.929Z,508.00
2023-05-10T04:17:36.931Z,510.00
2023-05-10T04:18:36.898Z,502.00
2023-05-10T04:19:36.904Z,510.00
2023-05-10T04:20:36.936Z,504.00
2023-05-10T04:21:36.922Z,507.00
2023-05-10T04:22:36.935Z,501.00
2023-05-10T04:23:36.982Z,510.00
2023-05-10T04:24:36.944Z,505.00
2023-05-10T04:25:36.954Z,508.00
2023-05-10T04:26:36.984Z,503.00
2023-05-10T04:27:36.994Z,504.00
2023-05-10T04:28:36.983Z,503.00
2023-05-10T04:29:36.987Z,505.00
2023-05-10T04:30:37.038Z,506.00
2023-05-10T04:31:37.003Z,506.00
2023-05-10T04:32:37.092Z,504.00
2023-05-10T04:33:37.026Z,504.00
2023-05-10T04:34:37.064Z,505.00
2023-05-10T04:35:37.058Z,503.00
2023-05-10T04:36:37.069Z,502.00
2023-05-10T04:37:37.080Z,505.00
2023-05-10T04:38:37.091Z,501.00
2023-05-10T04:39:37.110Z,508.00
2023-05-10T04:40:37.116Z,500.00
2023-05-10T04:41:37.133Z,504.00
2023-05-10T04:42:37.143Z,504.00
2023-05-10T04:43:37.258Z,507.00
2023-05-10T04:44:37.198Z,505.00
2023-05-10T04:45:37.166Z,509.00
2023-05-10T04:46:37.297Z,507.00
2023-05-10T04:47:37.253Z,512.00
2023-05-10T04:48:37.214Z,508.00
2023-05-10T04:49:37.231Z,506.00
2023-05-10T04:50:37.225Z,508.00
2023-05-10T04:51:37.333Z,500.00
2023-05-10T04:52:37.256Z,509.00
2023-05-10T04:53:38.066Z,512.00
2023-05-10T04:54:37.274Z,507.00
2023-05-10T04:55:37.280Z,508.00
2023-05-10T04:56:37.275Z,505.00
2023-05-10T04:57:37.295Z,503.00
2023-05-10T04:58:37.299Z,506.00
2023-05-10T04:59:37.331Z,503.00
2023-05-10T05:00:37.324Z,506.00
2023-05-10T05:01:37.384Z,505.00
2023-05-10T05:02:37.467Z,500.00
2023-05-10T05:03:37.392Z,505.00
2023-05-10T05:04:37.358Z,503.00
2023-05-10T05:05:37.401Z,503.00
2023-05-10T05:06:37.391Z,507.00
2023-05-10T05:07:37.462Z,505.00
2023-05-10T05:08:37.398Z,505.00
2023-05-10T05:09:37.402Z,506.00
2023-05-10T05:10:37.408Z,503.00
2023-05-10T05:11:37.408Z,502.00
2023-05-10T05:12:37.420Z,502.00
2023-05-10T05:13:37.429Z,506.00
2023-05-10T05:14:37.464Z,506.00
2023-05-10T05:15:37.452Z,504.00
2023-05-10T05:16:37.607Z,504.00
2023-05-10T05:17:37.498Z,505.00
2023-05-10T05:18:37.470Z,505.00
2023-05-10T05:19:37.480Z,512.00
2023-05-10T05:20:37.490Z,509.00
2023-05-10T05:21:37.495Z,517.00
2023-05-10T05:22:37.576Z,515.00
2023-05-10T05:23:37.503Z,522.00
2023-05-10T05:24:37.528Z,526.00
2023-05-10T05:25:37.539Z,515.00
2023-05-10T05:26:38.505Z,526.00
2023-05-10T05:27:37.614Z,528.00
2023-05-10T05:28:37.546Z,572.00
2023-05-10T05:29:38.512Z,571.00
2023-05-10T05:30:37.507Z,569.00
2023-05-10T05:31:39.082Z,572.00
2023-05-10T05:32:37.457Z,558.00
2023-05-10T05:33:37.404Z,565.00
2023-05-10T05:34:37.396Z,567.00
2023-05-10T05:35:37.371Z,566.00
2023-05-10T05:36:37.711Z,580.00
2023-05-10T05:37:37.306Z,589.00
2023-05-10T05:38:37.284Z,608.00
2023-05-10T05:39:37.297Z,612.00
2023-05-10T05:40:37.388Z,625.00
2023-05-10T05:41:37.213Z,636.00
2023-05-10T05:42:37.172Z,645.00
2023-05-10T05:43:38.328Z,666.00
2023-05-10T05:44:37.181Z,693.00
2023-05-10T05:45:37.269Z,713.00
2023-05-10T05:46:37.249Z,762.00
2023-05-10T05:47:37.393Z,796.00
2023-05-10T05:48:37.332Z,804.00
2023-05-10T05:49:37.366Z,834.00
2023-05-10T05:50:37.371Z,861.00
2023-05-10T05:51:37.391Z,892.00
2023-05-10T05:52:37.419Z,909.00
2023-05-10T05:53:37.434Z,927.00
2023-05-10T05:54:39.059Z,960.00
2023-05-10T05:55:37.462Z,986.00
2023-05-10T05:56:37.460Z,1028.00
2023-05-10T05:57:37.487Z,1058.00
2023-05-10T05:58:37.489Z,1084.00
2023-05-10T05:59:37.486Z,1114.00
2023-05-10T06:00:37.529Z,1148.00
2023-05-10T06:01:37.484Z,1193.00
2023-05-10T06:02:37.630Z,1210.00
2023-05-10T06:03:37.561Z,1232.00
2023-05-10T06:04:37.532Z,1256.00
2023-05-10T06:05:37.629Z,1295.00
2023-05-10T06:06:37.479Z,1321.00
2023-05-10T06:07:37.492Z,1350.00
2023-05-10T06:08:37.467Z,1398.00
2023-05-10T06:09:37.467Z,1415.00
2023-05-10T06:10:37.451Z,1433.00
2023-05-10T06:11:37.490Z,1460.00
2023-05-10T06:12:37.419Z,1498.00
2023-05-10T06:13:37.403Z,1523.00
2023-05-10T06:14:37.377Z,1523.00
2023-05-10T06:15:37.382Z,1542.00
2023-05-10T06:16:37.390Z,1574.00
2023-05-10T06:17:37.341Z,1582.00
2023-05-10T06:18:37.297Z,1607.00
2023-05-10T06:19:37.269Z,1610.00
2023-05-10T06:20:37.276Z,1624.00
2023-05-10T06:21:37.234Z,1649.00
2023-05-10T06:22:37.199Z,1663.00
2023-05-10T06:23:37.159Z,1676.00
2023-05-10T06:24:37.170Z,1683.00
2023-05-10T06:25:37.162Z,1678.00
2023-05-10T06:26:37.609Z,1702.00
2023-05-10T06:27:37.160Z,1638.00
2023-05-10T06:28:37.158Z,1247.00
2023-05-10T06:29:37.050Z,982.00
2023-05-10T06:30:37.068Z,670.00
2023-05-10T06:31:37.133Z,552.00
2023-05-10T06:32:37.092Z,500.00
2023-05-10T06:33:37.072Z,495.00
2023-05-10T06:34:37.049Z,500.00
2023-05-10T06:35:37.047Z,493.00
2023-05-10T06:36:37.041Z,504.00
2023-05-10T06:37:37.032Z,489.00
2023-05-10T06:38:37.058Z,500.00
2023-05-10T06:39:37.051Z,500.00
2023-05-10T06:40:37.609Z,516.00
2023-05-10T06:41:37.062Z,499.00
2023-05-10T06:42:37.069Z,486.00
2023-05-10T06:43:37.039Z,499.00
2023-05-10T06:44:37.034Z,505.00
2023-05-10T06:45:37.034Z,511.00
2023-05-10T06:46:37.079Z,500.00
2023-05-10T06:47:38.794Z,504.00
2023-05-10T06:48:37.049Z,501.00
2023-05-10T06:49:38.035Z,502.00
2023-05-10T06:50:36.999Z,508.00
2023-05-10T06:51:36.963Z,526.00
2023-05-10T06:52:36.938Z,556.00
2023-05-10T06:53:36.941Z,608.00
2023-05-10T06:54:36.916Z,620.00
2023-05-10T06:55:36.886Z,640.00
2023-05-10T06:56:36.839Z,649.00
2023-05-10T06:57:36.813Z,657.00
2023-05-10T06:58:36.838Z,662.00
2023-05-10T06:59:36.850Z,665.00
2023-05-10T07:00:36.816Z,672.00
2023-05-10T07:01:36.828Z,695.00
2023-05-10T07:02:36.895Z,739.00
2023-05-10T07:03:36.856Z,734.00
2023-05-10T07:04:36.940Z,781.00
2023-05-10T07:05:36.982Z,809.00
2023-05-10T07:06:36.950Z,794.00
2023-05-10T07:07:36.955Z,770.00
2023-05-10T07:08:36.975Z,755.00
2023-05-10T07:09:36.996Z,749.00
2023-05-10T07:10:37.029Z,740.00
2023-05-10T07:11:37.025Z,719.00
2023-05-10T07:12:37.090Z,701.00
2023-05-10T07:13:37.037Z,700.00
2023-05-10T07:14:37.052Z,704.00
2023-05-10T07:15:37.062Z,743.00
2023-05-10T07:16:37.102Z,774.00
2023-05-10T07:17:37.155Z,787.00
2023-05-10T07:18:37.111Z,798.00
2023-05-10T07:19:37.117Z,762.00
2023-05-10T07:20:37.105Z,761.00
2023-05-10T07:21:37.210Z,755.00
2023-05-10T07:22:37.213Z,777.00
2023-05-10T07:23:37.188Z,779.00
2023-05-10T07:24:37.190Z,794.00
2023-05-10T07:25:37.218Z,814.00
2023-05-10T07:26:37.266Z,813.00
2023-05-10T07:27:37.285Z,827.00
2023-05-10T07:28:37.303Z,840.00
2023-05-10T07:29:37.362Z,863.00
2023-05-10T07:30:37.387Z,845.00
2023-05-10T07:31:37.429Z,846.00
2023-05-10T07:32:37.511Z,865.00
2023-05-10T07:33:37.478Z,888.00
2023-05-10T07:34:37.517Z,899.00
2023-05-10T07:35:37.559Z,910.00
2023-05-10T07:36:37.597Z,903.00
2023-05-10T07:37:37.632Z,921.00
2023-05-10T07:38:40.243Z,914.00
2023-05-10T07:39:37.643Z,926.00
2023-05-10T07:40:37.623Z,933.00
2023-05-10T07:41:37.596Z,930.00
2023-05-10T07:42:37.616Z,943.00
2023-05-10T07:43:37.538Z,941.00
2023-05-10T07:44:37.519Z,945.00
2023-05-10T07:45:37.505Z,940.00
2023-05-10T07:46:37.523Z,955.00
2023-05-10T07:47:37.485Z,956.00
2023-05-10T07:48:37.412Z,940.00
2023-05-10T07:49:37.392Z,954.00
2023-05-10T07:50:37.347Z,953.00
2023-05-10T07:51:37.319Z,954.00
2023-05-10T07:52:37.290Z,957.00
2023-05-10T07:53:37.261Z,956.00
2023-05-10T07:54:37.242Z,962.00
2023-05-10T07:55:37.211Z,956.00
2023-05-10T07:56:37.199Z,958.00
2023-05-10T07:57:37.141Z,957.00
2023-05-10T07:58:37.114Z,955.00
2023-05-10T07:59:37.102Z,957.00
2023-05-10T08:00:37.064Z,982.00
2023-05-10T08:01:37.051Z,965.00
2023-05-10T08:02:37.155Z,963.00
2023-05-10T08:03:37.134Z,968.00
2023-05-10T08:04:36.999Z,957.00
2023-05-10T08:05:36.923Z,974.00
2023-05-10T08:06:36.907Z,972.00
2023-05-10T08:07:36.871Z,977.00
2023-05-10T08:08:36.846Z,974.00
2023-05-10T08:09:36.823Z,976.00
2023-05-10T08:10:36.796Z,965.00
2023-05-10T08:11:37.707Z,976.00
2023-05-10T08:12:36.739Z,967.00
2023-05-10T08:13:36.715Z,963.00
2023-05-10T08:14:36.686Z,958.00
2023-05-10T08:15:36.688Z,955.00
2023-05-10T08:16:36.632Z,958.00
2023-05-10T08:17:36.624Z,949.00
2023-05-10T08:18:36.606Z,969.00
2023-05-10T08:19:36.557Z,949.00
2023-05-10T08:20:36.554Z,957.00
2023-05-10T08:21:36.583Z,940.00
2023-05-10T08:22:36.599Z,948.00
2023-05-10T08:23:36.612Z,954.00
2023-05-10T08:24:36.608Z,949.00
2023-05-10T08:25:36.627Z,963.00
2023-05-10T08:26:36.611Z,947.00
2023-05-10T08:27:36.616Z,938.00
2023-05-10T08:28:36.656Z,951.00
2023-05-10T08:29:48.921Z,932.00
2023-05-10T08:30:37.635Z,934.00
2023-05-10T08:31:36.647Z,935.00
2023-05-10T08:32:36.614Z,942.00
2023-05-10T08:33:36.552Z,942.00
2023-05-10T08:34:36.534Z,944.00
2023-05-10T08:35:36.511Z,954.00
2023-05-10T08:36:36.480Z,942.00
2023-05-10T08:37:36.450Z,947.00
2023-05-10T08:38:36.459Z,937.00
2023-05-10T08:39:36.429Z,945.00
2023-05-10T08:40:36.658Z,941.00
2023-05-10T08:41:38.175Z,927.00
2023-05-10T08:42:36.531Z,936.00
2023-05-10T08:43:36.557Z,936.00
2023-05-10T08:44:36.572Z,926.00
2023-05-10T08:45:36.588Z,935.00
2023-05-10T08:46:36.651Z,928.00
2023-05-10T08:47:36.677Z,934.00
2023-05-10T08:48:36.644Z,923.00
2023-05-10T08:49:36.643Z,924.00
2023-05-10T08:50:36.682Z,931.00
2023-05-10T08:51:36.757Z,919.00
2023-05-10T08:52:36.720Z,924.00
2023-05-10T08:53:36.748Z,923.00
2023-05-10T08:54:36.797Z,925.00
2023-05-10T08:55:36.828Z,916.00
2023-05-10T08:56:36.817Z,915.00
2023-05-10T08:57:36.857Z,910.00
2023-05-10T08:58:37.774Z,911.00
2023-05-10T08:59:36.825Z,912.00
2023-05-10T09:00:36.872Z,915.00
2023-05-10T09:01:36.795Z,921.00
2023-05-10T09:02:36.767Z,927.00
2023-05-10T09:03:36.764Z,910.00
2023-05-10T09:04:36.839Z,925.00
2023-05-10T09:05:36.703Z,916.00
2023-05-10T09:06:36.677Z,910.00
2023-05-10T09:07:36.751Z,895.00
2023-05-10T09:08:36.611Z,909.00
2023-05-10T09:09:36.588Z,922.00
2023-05-10T09:10:36.581Z,923.00
2023-05-10T09:11:36.594Z,910.00
2023-05-10T09:12:36.571Z,921.00
2023-05-10T09:13:36.563Z,904.00
2023-05-10T09:14:36.564Z,919.00
2023-05-10T09:15:36.562Z,905.00
2023-05-10T09:16:36.590Z,914.00
2023-05-10T09:17:36.597Z,908.00
2023-05-10T09:18:36.577Z,905.00
2023-05-10T09:19:36.559Z,898.00
2023-05-10T09:20:36.515Z,899.00
2023-05-10T09:21:36.478Z,902.00
2023-05-10T09:22:36.449Z,902.00
2023-05-10T09:23:36.443Z,915.00
2023-05-10T09:24:36.401Z,912.00
2023-05-10T09:25:36.427Z,902.00
2023-05-10T09:26:36.353Z,903.00
2023-05-10T09:27:36.323Z,906.00
2023-05-10T09:28:36.290Z,911.00
2023-05-10T09:29:36.281Z,912.00
2023-05-10T09:30:36.296Z,913.00
2023-05-10T09:31:36.265Z,918.00
2023-05-10T09:32:36.223Z,886.00
2023-05-10T09:33:36.157Z,914.00
2023-05-10T09:34:36.133Z,908.00
2023-05-10T09:35:36.105Z,904.00
2023-05-10T09:36:36.078Z,912.00
2023-05-10T09:37:36.049Z,920.00
2023-05-10T09:38:36.008Z,896.00
2023-05-10T09:39:35.997Z,918.00
2023-05-10T09:40:35.959Z,909.00
2023-05-10T09:41:35.927Z,910.00
2023-05-10T09:42:35.907Z,899.00
2023-05-10T09:43:35.881Z,895.00
2023-05-10T09:44:35.880Z,909.00
2023-05-10T09:45:38.305Z,911.00
2023-05-10T09:46:35.835Z,908.00
2023-05-10T09:47:35.827Z,906.00
2023-05-10T09:48:35.755Z,896.00
2023-05-10T09:49:35.747Z,900.00
2023-05-10T09:50:35.715Z,898.00
2023-05-10T09:51:36.785Z,897.00
2023-05-10T09:52:35.664Z,905.00
2023-05-10T09:53:35.641Z,892.00
2023-05-10T09:54:35.647Z,894.00
2023-05-10T09:55:35.597Z,885.00
2023-05-10T09:56:35.582Z,889.00
2023-05-10T09:57:35.545Z,888.00
2023-05-10T09:58:35.525Z,887.00
2023-05-10T09:59:35.496Z,884.00
2023-05-10T10:00:35.477Z,887.00
2023-05-10T10:01:35.492Z,874.00
2023-05-10T10:02:35.476Z,881.00
2023-05-10T10:03:35.411Z,879.00
2023-05-10T10:04:35.425Z,889.00
2023-05-10T10:05:35.395Z,889.00
2023-05-10T10:06:35.363Z,876.00
2023-05-10T10:07:35.389Z,874.00
2023-05-10T10:08:35.306Z,872.00
2023-05-10T10:09:35.276Z,877.00
2023-05-10T10:10:35.249Z,873.00
2023-05-10T10:11:35.230Z,872.00
2023-05-10T10:12:35.202Z,882.00
2023-05-10T10:13:35.171Z,881.00
2023-05-10T10:14:35.140Z,875.00
2023-05-10T10:15:35.162Z,895.00
2023-05-10T10:16:35.117Z,876.00
2023-05-10T10:17:35.103Z,883.00
2023-05-10T10:18:35.080Z,868.00
2023-05-10T10:19:35.029Z,865.00
2023-05-10T10:20:34.985Z,853.00
2023-05-10T10:21:34.955Z,863.00
2023-05-10T10:22:34.934Z,872.00
2023-05-10T10:23:34.935Z,870.00
2023-05-10T10:24:34.982Z,870.00
2023-05-10T10:25:34.879Z,875.00
2023-05-10T10:26:34.848Z,870.00
2023-05-10T10:27:34.829Z,859.00
2023-05-10T10:28:34.794Z,861.00
2023-05-10T10:29:34.760Z,873.00
2023-05-10T10:30:34.757Z,867.00
2023-05-10T10:31:34.791Z,863.00
2023-05-10T10:32:34.735Z,856.00
2023-05-10T10:33:34.775Z,860.00
2023-05-10T10:34:34.659Z,850.00
2023-05-10T10:35:34.610Z,857.00
2023-05-10T10:36:34.576Z,855.00
2023-05-10T10:37:34.567Z,853.00
2023-05-10T10:38:34.526Z,861.00
2023-05-10T10:39:34.525Z,846.00
2023-05-10T10:40:35.100Z,841.00
2023-05-10T10:41:34.457Z,850.00
2023-05-10T10:42:34.501Z,845.00
2023-05-10T10:43:34.386Z,856.00
2023-05-10T10:44:34.394Z,856.00
2023-05-10T10:45:35.333Z,857.00
2023-05-10T10:46:34.364Z,859.00
2023-05-10T10:47:34.432Z,859.00
2023-05-10T10:48:34.266Z,860.00
2023-05-10T10:49:34.255Z,850.00
2023-05-10T10:50:34.235Z,861.00
2023-05-10T10:51:34.171Z,851.00
2023-05-10T10:52:34.289Z,848.00
2023-05-10T10:53:34.151Z,853.00
2023-05-10T10:54:34.082Z,846.00
2023-05-10T10:55:34.082Z,843.00
2023-05-10T10:56:35.161Z,846.00
2023-05-10T10:57:33.989Z,849.00
2023-05-10T10:58:34.006Z,839.00
2023-05-10T10:59:33.969Z,832.00
2023-05-10T11:00:33.973Z,847.00
2023-05-10T11:01:34.010Z,839.00
2023-05-10T11:02:33.943Z,833.00
2023-05-10T11:03:33.910Z,831.00
2023-05-10T11:04:33.969Z,828.00
2023-05-10T11:05:33.861Z,835.00
2023-05-10T11:06:33.863Z,823.00
2023-05-10T11:07:33.838Z,828.00
2023-05-10T11:08:35.114Z,833.00
2023-05-10T11:09:34.116Z,844.00
2023-05-10T11:10:33.774Z,832.00
2023-05-10T11:11:33.748Z,831.00
2023-05-10T11:12:33.714Z,841.00
2023-05-10T11:13:33.685Z,821.00
2023-05-10T11:14:33.685Z,823.00
2023-05-10T11:15:33.640Z,826.00
2023-05-10T11:16:33.657Z,825.00
2023-05-10T11:17:33.617Z,815.00
2023-05-10T11:18:33.556Z,823.00
2023-05-10T11:19:33.513Z,810.00
2023-05-10T11:20:33.484Z,819.00
2023-05-10T11:21:33.486Z,814.00
2023-05-10T11:22:33.487Z,825.00
2023-05-10T11:23:33.433Z,812.00
2023-05-10T11:24:33.373Z,806.00
2023-05-10T11:25:33.345Z,803.00
2023-05-10T11:26:33.306Z,806.00
2023-05-10T11:27:33.276Z,819.00
2023-05-10T11:28:33.260Z,808.00
2023-05-10T11:29:33.225Z,811.00
2023-05-10T11:30:33.274Z,801.00
2023-05-10T11:31:33.193Z,813.00
2023-05-10T11:32:33.176Z,816.00
2023-05-10T11:33:33.717Z,811.00
2023-05-10T11:34:33.070Z,804.00
2023-05-10T11:35:33.046Z,818.00
2023-05-10T11:36:33.034Z,812.00
2023-05-10T11:37:32.977Z,793.00
2023-05-10T11:38:32.936Z,802.00
2023-05-10T11:39:32.921Z,801.00
2023-05-10T11:40:32.886Z,789.00
2023-05-10T11:41:32.883Z,777.00
2023-05-10T11:42:32.820Z,788.00
2023-05-10T11:43:32.813Z,805.00
2023-05-10T11:44:32.827Z,770.00
2023-05-10T11:45:32.733Z,796.00
2023-05-10T11:46:32.840Z,795.00
2023-05-10T11:47:32.717Z,776.00
2023-05-10T11:48:32.630Z,801.00
2023-05-10T11:49:32.593Z,794.00
2023-05-10T11:50:32.565Z,776.00
2023-05-10T11:51:32.534Z,781.00
2023-05-10T11:52:32.502Z,793.00
2023-05-10T11:53:32.478Z,776.00
2023-05-10T11:54:32.429Z,766.00
2023-05-10T11:55:32.419Z,753.00
2023-05-10T11:56:32.553Z,756.00
2023-05-10T11:57:32.347Z,763.00
2023-05-10T11:58:32.321Z,771.00
2023-05-10T11:59:32.284Z,760.00
2023-05-10T12:00:32.264Z,778.00
2023-05-10T12:01:32.236Z,751.00
2023-05-10T12:02:33.250Z,753.00
2023-05-10T12:03:32.400Z,760.00
2023-05-10T12:04:32.178Z,765.00
2023-05-10T12:05:32.087Z,774.00
2023-05-10T12:06:32.263Z,787.00
2023-05-10T12:07:32.041Z,772.00
2023-05-10T12:08:32.047Z,778.00
2023-05-10T12:09:43.072Z,764.00
2023-05-10T12:10:32.935Z,766.00
2023-05-10T12:11:31.924Z,768.00
2023-05-10T12:12:31.889Z,772.00
2023-05-10T12:13:31.863Z,757.00
2023-05-10T12:14:31.816Z,784.00
2023-05-10T12:15:31.786Z,759.00
2023-05-10T12:16:31.915Z,740.00
2023-05-10T12:17:31.819Z,762.00
2023-05-10T12:18:32.676Z,756.00
2023-05-10T12:19:31.700Z,755.00
2023-05-10T12:20:31.652Z,749.00
2023-05-10T12:21:31.680Z,754.00
2023-05-10T12:22:31.587Z,739.00
2023-05-10T12:23:31.562Z,754.00
2023-05-10T12:24:32.279Z,741.00
2023-05-10T12:25:31.488Z,730.00
2023-05-10T12:26:31.617Z,725.00
2023-05-10T12:27:31.429Z,742.00